Time;durP1;ratioP1;P1;durP2;ratioP2;P2;SDS_P1;SDS_P2;PMS_P1;PMS_P2;Temp;Humidity;BMP_temperature;BMP_pressure;BME280_temperature;BME280_humidity;BME280_pressure;Samples;Min_cycle;Max_cycle;Signal;HPM_P1;HPM_P2
2022/09/04 00:01:13;;;;;;;1.33;1.17;;;16.50;61.60;;;;;;4995868;28;20033;-74
2022/09/04 00:04:14;;;;;;;7.22;1.15;;;16.50;63.00;;;;;;4995751;28;20040;-74
2022/09/04 00:07:06;;;;;;;3.35;1.00;;;16.50;62.40;;;;;;4940791;28;20084;-74
2022/09/04 00:09:47;;;;;;;1.85;1.00;;;16.40;62.10;;;;;;4997617;28;20038;-74
2022/09/04 00:12:12;;;;;;;1.63;1.13;;;16.40;62.60;;;;;;4982933;28;20071;-74
2022/09/04 00:14:47;;;;;;;5.35;1.02;;;16.30;62.10;;;;;;4978661;28;20052;-74
2022/09/04 00:17:22;;;;;;;1.85;1.23;;;16.30;62.40;;;;;;4950374;28;20038;-76
2022/09/04 00:19:58;;;;;;;2.60;1.33;;;16.20;62.60;;;;;;4945749;28;20026;-75
2022/09/04 00:22:43;;;;;;;1.20;1.10;;;16.20;62.70;;;;;;4952982;28;20061;-75
2022/09/04 00:25:22;;;;;;;1.60;1.30;;;16.20;63.00;;;;;;4977127;28;20041;-75
2022/09/04 00:27:52;;;;;;;4.03;1.20;;;16.20;63.00;;;;;;4983129;28;20035;-75
2022/09/04 00:30:19;;;;;;;2.40;1.20;;;16.10;62.80;;;;;;4955891;28;20034;-74
2022/09/04 00:33:04;;;;;;;3.20;1.17;;;16.10;62.80;;;;;;4947541;28;20041;-75
2022/09/04 00:35:30;;;;;;;1.77;1.27;;;16.10;63.20;;;;;;4963624;28;20575;-73
2022/09/04 00:38:17;;;;;;;1.38;1.10;;;16.00;63.00;;;;;;4972503;28;20077;-74
2022/09/04 00:40:56;;;;;;;1.67;1.10;;;16.00;63.30;;;;;;4989881;28;20050;-75
2022/09/04 00:43:48;;;;;;;3.88;1.10;;;16.00;63.60;;;;;;4969041;28;20157;-74
2022/09/04 00:46:20;;;;;;;3.05;1.00;;;15.90;63.90;;;;;;4994492;28;20071;-74
2022/09/04 00:49:02;;;;;;;2.10;1.10;;;15.90;63.60;;;;;;4983756;28;20042;-74
2022/09/04 00:51:52;;;;;;;1.05;0.95;;;15.90;63.80;;;;;;4983056;28;20112;-74
2022/09/04 00:54:20;;;;;;;2.13;1.17;;;15.80;63.60;;;;;;4959752;28;20037;-75
2022/09/04 00:57:01;;;;;;;1.08;0.98;;;15.80;63.80;;;;;;5003064;28;20050;-74
2022/09/04 00:59:44;;;;;;;1.83;1.07;;;15.80;64.40;;;;;;4985598;28;20038;-74
2022/09/04 01:02:31;;;;;;;1.42;1.33;;;15.70;64.10;;;;;;4992637;28;20046;-74
2022/09/04 01:05:00;;;;;;;1.70;0.93;;;15.70;64.60;;;;;;4968629;28;20565;-74
2022/09/04 01:07:34;;;;;;;1.40;1.02;;;15.70;64.20;;;;;;4982508;28;20131;-74
2022/09/04 01:10:28;;;;;;;2.00;1.33;;;15.60;64.40;;;;;;4969173;28;20637;-74
2022/09/04 01:13:02;;;;;;;3.15;1.17;;;15.60;64.90;;;;;;4978238;28;20650;-74
2022/09/04 01:15:48;;;;;;;3.90;1.00;;;15.60;64.50;;;;;;4950543;28;20057;-74
2022/09/04 01:18:30;;;;;;;1.50;1.10;;;15.50;64.80;;;;;;4966346;28;20058;-74
2022/09/04 01:21:01;;;;;;;1.95;1.15;;;15.50;65.00;;;;;;4965077;28;20106;-75
2022/09/04 01:24:04;;;;;;;3.15;1.10;;;15.50;64.80;;;;;;4972018;28;20039;-74
2022/09/04 01:26:36;;;;;;;2.13;1.40;;;15.50;65.40;;;;;;5006786;28;20037;-75
2022/09/04 01:29:19;;;;;;;2.60;1.25;;;15.40;64.80;;;;;;4988695;28;20048;-74
2022/09/04 01:32:20;;;;;;;2.45;1.45;;;15.40;64.90;;;;;;5000539;28;20173;-74
2022/09/04 01:35:14;;;;;;;1.80;1.35;;;15.40;65.50;;;;;;4972365;28;20097;-73
2022/09/04 01:37:46;;;;;;;2.53;1.38;;;15.30;65.30;;;;;;4969560;28;20120;-74
2022/09/04 01:40:30;;;;;;;;;;;15.30;65.20;;;;;;4960699;28;20041;-74
2022/09/04 01:43:10;;;;;;;1.40;1.20;;;15.30;64.90;;;;;;5006978;28;19917;-73
2022/09/04 01:45:59;;;;;;;2.00;1.73;;;15.20;65.30;;;;;;4968879;28;20048;-73
2022/09/04 01:48:50;;;;;;;2.97;1.38;;;15.20;65.60;;;;;;5002167;28;20037;-74
2022/09/04 01:51:39;;;;;;;1.40;1.10;;;15.20;65.90;;;;;;4979444;28;20030;-74
2022/09/04 01:54:04;;;;;;;1.88;1.08;;;15.10;65.80;;;;;;4964994;28;20054;-74
2022/09/04 01:56:58;;;;;;;1.10;1.00;;;15.10;65.30;;;;;;5004474;28;20061;-74
2022/09/04 01:59:31;;;;;;;1.45;1.35;;;15.10;66.00;;;;;;4968366;28;20085;-73
2022/09/04 02:02:19;;;;;;;1.38;1.17;;;15.00;65.60;;;;;;4990186;28;20033;-76
2022/09/04 02:04:51;;;;;;;4.28;1.02;;;15.00;65.60;;;;;;4979742;28;20022;-74
2022/09/04 02:07:39;;;;;;;1.50;1.40;;;15.00;65.80;;;;;;5004964;28;20049;-73
2022/09/04 02:10:40;;;;;;;1.27;1.10;;;14.90;66.40;;;;;;5001748;28;20052;-73
2022/09/04 02:13:16;;;;;;;1.98;1.27;;;14.90;66.40;;;;;;4945360;28;20050;-73
2022/09/04 02:15:52;;;;;;;2.72;1.33;;;14.90;66.40;;;;;;4971116;28;20056;-74
2022/09/04 02:18:38;;;;;;;1.55;1.45;;;14.90;67.10;;;;;;4965309;28;20520;-75
2022/09/04 02:21:07;;;;;;;3.35;1.20;;;14.80;66.50;;;;;;4982522;28;20126;-74
2022/09/04 02:23:56;;;;;;;1.50;1.27;;;14.80;66.50;;;;;;4967947;28;20106;-74
2022/09/04 02:26:26;;;;;;;2.97;1.42;;;14.80;67.00;;;;;;4971589;28;20045;-74
2022/09/04 02:28:59;;;;;;;1.75;1.42;;;14.80;66.60;;;;;;4961605;28;20055;-73
2022/09/04 02:31:28;;;;;;;5.47;1.40;;;14.70;66.80;;;;;;4982166;28;20046;-75
2022/09/04 02:34:02;;;;;;;2.17;1.52;;;14.70;66.80;;;;;;4978618;28;20042;-73
2022/09/04 02:36:32;;;;;;;2.03;1.30;;;14.70;67.00;;;;;;4979102;28;20038;-74
2022/09/04 02:39:03;;;;;;;1.10;1.00;;;14.60;66.90;;;;;;4979385;28;20035;-73
2022/09/04 02:41:36;;;;;;;2.13;1.23;;;14.60;67.10;;;;;;4980881;28;20122;-74
2022/09/04 02:44:19;;;;;;;1.83;1.38;;;14.60;67.00;;;;;;4982363;28;20042;-74
2022/09/04 02:47:24;;;;;;;5.07;1.30;;;14.60;67.30;;;;;;4998361;28;20042;-74
2022/09/04 02:50:03;;;;;;;1.40;1.27;;;14.60;67.60;;;;;;4998681;28;20034;-74
2022/09/04 02:52:32;;;;;;;1.30;1.20;;;14.50;68.30;;;;;;4988539;28;20041;-74
2022/09/04 02:55:09;;;;;;;2.25;1.00;;;14.50;67.30;;;;;;4991480;28;20044;-75
2022/09/04 02:57:53;;;;;;;1.50;1.40;;;14.50;67.50;;;;;;5005919;28;20045;-74
2022/09/04 03:00:20;;;;;;;1.70;1.30;;;14.50;67.50;;;;;;5005589;28;20026;-74
2022/09/04 03:02:56;;;;;;;1.30;1.20;;;14.40;67.60;;;;;;4976550;28;20041;-74
2022/09/04 03:05:24;;;;;;;3.40;1.25;;;14.40;67.80;;;;;;4969339;28;20057;-75
2022/09/04 03:07:52;;;;;;;1.27;1.17;;;14.40;67.90;;;;;;4984822;28;20038;-75
2022/09/04 03:10:27;;;;;;;1.73;1.42;;;14.40;67.80;;;;;;4974114;28;20407;-74
2022/09/04 03:12:59;;;;;;;2.25;1.30;;;14.30;69.00;;;;;;4973681;28;20454;-75
2022/09/04 03:15:43;;;;;;;1.67;1.27;;;14.30;68.00;;;;;;4986523;28;20060;-74
2022/09/04 03:18:26;;;;;;;1.15;1.10;;;14.30;68.10;;;;;;4984793;28;20041;-75
2022/09/04 03:21:08;;;;;;;1.15;1.10;;;14.30;68.50;;;;;;4967329;28;20026;-74
2022/09/04 03:23:50;;;;;;;2.20;1.52;;;14.30;68.50;;;;;;4972675;28;20128;-74
2022/09/04 03:26:31;;;;;;;1.23;1.13;;;14.20;68.50;;;;;;4964589;28;20058;-74
2022/09/04 03:29:05;;;;;;;2.47;1.48;;;14.20;68.50;;;;;;4970785;28;20070;-73
2022/09/04 03:31:32;;;;;;;2.90;1.70;;;14.20;68.50;;;;;;4962145;28;20686;-74
2022/09/04 03:34:29;;;;;;;1.63;1.30;;;14.20;68.40;;;;;;4961689;28;20102;-74
2022/09/04 03:37:13;;;;;;;2.38;1.60;;;14.10;68.80;;;;;;4952309;28;20038;-73
2022/09/04 03:40:05;;;;;;;2.40;1.40;;;14.10;68.80;;;;;;4969420;28;20514;-74
2022/09/04 03:42:46;;;;;;;2.70;1.33;;;14.10;69.00;;;;;;4980261;28;20066;-74
2022/09/04 03:45:14;;;;;;;1.60;1.50;;;14.10;68.70;;;;;;4953099;28;20050;-75
2022/09/04 03:47:42;;;;;;;1.85;1.42;;;14.00;68.70;;;;;;4979735;28;20026;-73
2022/09/04 03:50:19;;;;;;;1.73;1.40;;;14.00;68.80;;;;;;4970470;28;20057;-74
2022/09/04 03:53:06;;;;;;;1.45;1.33;;;14.00;69.10;;;;;;4999262;28;20086;-73
2022/09/04 03:55:40;;;;;;;2.13;1.42;;;14.00;69.10;;;;;;4983462;28;20034;-74
2022/09/04 03:58:42;;;;;;;2.38;1.40;;;13.90;69.00;;;;;;4984188;28;20047;-74
2022/09/04 04:01:24;;;;;;;3.40;1.50;;;13.90;69.40;;;;;;4973778;28;20030;-73
2022/09/04 04:03:49;;;;;;;2.20;1.50;;;13.90;69.40;;;;;;4985750;28;20030;-74
2022/09/04 04:06:49;;;;;;;1.73;1.48;;;13.90;69.20;;;;;;4981755;28;20062;-73
2022/09/04 04:09:35;;;;;;;1.85;1.45;;;13.90;69.60;;;;;;4966848;28;20654;-74
2022/09/04 04:12:26;;;;;;;2.45;1.50;;;13.90;69.60;;;;;;4961716;28;20068;-74
2022/09/04 04:15:28;;;;;;;3.20;1.40;;;13.80;69.80;;;;;;4973761;28;20037;-74
2022/09/04 04:18:20;;;;;;;2.00;1.50;;;13.80;69.80;;;;;;4985864;28;20479;-74
2022/09/04 04:21:14;;;;;;;4.55;2.53;;;13.80;69.60;;;;;;4987844;28;20128;-73
2022/09/04 04:24:04;;;;;;;3.47;1.30;;;13.80;69.80;;;;;;4965326;28;20519;-73
2022/09/04 04:26:51;;;;;;;1.55;1.45;;;13.80;70.00;;;;;;4956982;28;20114;-73
2022/09/04 04:29:40;;;;;;;7.78;1.52;;;13.70;69.90;;;;;;4980679;28;20034;-73
2022/09/04 04:32:12;;;;;;;2.10;1.33;;;13.70;70.00;;;;;;4985530;28;20050;-74
2022/09/04 04:35:10;;;;;;;1.33;1.23;;;13.70;69.80;;;;;;5000937;28;20034;-74
2022/09/04 04:38:06;;;;;;;1.50;1.40;;;13.70;70.40;;;;;;4990640;28;20144;-74
2022/09/04 04:40:49;;;;;;;1.60;1.50;;;13.60;70.20;;;;;;4968690;28;20081;-74
2022/09/04 04:43:44;;;;;;;1.50;1.40;;;13.60;70.20;;;;;;4956287;28;20065;-74
2022/09/04 04:46:17;;;;;;;2.03;1.40;;;13.60;70.00;;;;;;4974715;28;20042;-75
2022/09/04 04:48:45;;;;;;;1.52;1.42;;;13.60;70.00;;;;;;4957203;28;20053;-74
2022/09/04 04:51:14;;;;;;;1.80;1.52;;;13.60;70.10;;;;;;4988196;28;20038;-74
2022/09/04 04:53:56;;;;;;;1.40;1.30;;;13.60;70.20;;;;;;4984584;28;20042;-74
2022/09/04 04:56:58;;;;;;;2.83;1.60;;;13.50;70.40;;;;;;4959179;28;20050;-74
2022/09/04 04:59:33;;;;;;;2.20;1.83;;;13.50;70.80;;;;;;4961115;28;20062;-74
2022/09/04 05:01:58;;;;;;;1.83;1.60;;;13.50;70.50;;;;;;4973632;28;20030;-74
2022/09/04 05:04:47;;;;;;;1.75;1.38;;;13.50;70.50;;;;;;4990395;28;20049;-74
2022/09/04 05:07:40;;;;;;;1.50;1.40;;;13.50;70.60;;;;;;4973924;28;20033;-74
2022/09/04 05:10:30;;;;;;;1.60;1.50;;;13.50;71.00;;;;;;4985145;28;20045;-75
2022/09/04 05:13:10;;;;;;;3.65;1.63;;;13.50;71.20;;;;;;4966927;28;20045;-74
2022/09/04 05:15:51;;;;;;;3.10;1.95;;;13.50;71.10;;;;;;4980829;28;20027;-75
2022/09/04 05:18:27;;;;;;;2.03;1.40;;;13.50;71.00;;;;;;4976957;28;20557;-74
2022/09/04 05:21:21;;;;;;;4.05;1.52;;;13.50;71.20;;;;;;4955281;28;20097;-73
2022/09/04 05:24:13;;;;;;;2.90;1.45;;;13.50;71.40;;;;;;4982092;28;20039;-73
2022/09/04 05:26:48;;;;;;;;;;;13.50;71.60;;;;;;4984623;28;20081;-74
2022/09/04 05:29:22;;;;;;;1.70;1.60;;;13.50;70.80;;;;;;5002723;28;23328;-74
2022/09/04 05:31:57;;;;;;;4.05;1.35;;;13.50;70.80;;;;;;4954433;28;20112;-74
2022/09/04 05:34:56;;;;;;;1.85;1.67;;;13.50;71.20;;;;;;4964094;28;20038;-75
2022/09/04 05:37:26;;;;;;;1.50;1.35;;;13.60;71.60;;;;;;4973036;28;20053;-74
2022/09/04 05:40:03;;;;;;;2.40;2.05;;;13.60;71.10;;;;;;4971350;28;20077;-74
2022/09/04 05:42:44;;;;;;;3.22;1.77;;;13.60;71.80;;;;;;4973054;28;20105;-75
2022/09/04 05:46:00;;;;;;;3.30;2.05;;;13.60;72.00;;;;;;4975990;28;20100;-73
2022/09/04 05:48:34;;;;;;;6.45;2.00;;;13.70;72.10;;;;;;4985203;28;20034;-75
2022/09/04 05:51:37;;;;;;;1.95;1.70;;;13.70;71.60;;;;;;5000955;28;20394;-75
2022/09/04 05:54:24;;;;;;;1.73;1.63;;;13.70;72.30;;;;;;4970785;28;20038;-73
2022/09/04 05:57:17;;;;;;;6.80;2.25;;;13.80;71.80;;;;;;4997598;28;20042;-76
2022/09/04 05:59:49;;;;;;;6.25;3.00;;;13.80;72.20;;;;;;4983445;28;20537;-74
2022/09/04 06:02:29;;;;;;;6.28;2.60;;;13.80;72.10;;;;;;4998332;28;20041;-74
2022/09/04 06:05:20;;;;;;;6.07;2.20;;;13.80;72.40;;;;;;4998888;28;20030;-74
2022/09/04 06:07:58;;;;;;;3.78;2.85;;;13.90;72.90;;;;;;4970255;28;20038;-77
2022/09/04 06:10:46;;;;;;;3.47;2.30;;;13.90;72.70;;;;;;4978266;28;20557;-74
2022/09/04 06:13:30;;;;;;;6.30;2.45;;;13.90;72.70;;;;;;4953217;28;20407;-74
2022/09/04 06:16:01;;;;;;;5.28;2.50;;;13.90;73.00;;;;;;4972390;28;20041;-76
2022/09/04 06:18:39;;;;;;;6.15;2.65;;;14.00;72.90;;;;;;5001476;28;20038;-76
2022/09/04 06:21:35;;;;;;;6.88;2.42;;;14.00;73.00;;;;;;4964198;28;20054;-75
2022/09/04 06:24:09;;;;;;;5.50;2.60;;;14.10;73.30;;;;;;4958115;28;20061;-74
2022/09/04 06:26:54;;;;;;;7.32;2.28;;;14.20;72.80;;;;;;4960439;28;20519;-74
2022/09/04 06:29:30;;;;;;;4.47;2.42;;;14.20;73.10;;;;;;4974234;28;20038;-76
2022/09/04 06:32:30;;;;;;;6.95;2.70;;;14.30;72.90;;;;;;4960347;28;20523;-73
2022/09/04 06:35:10;;;;;;;7.57;2.80;;;14.40;73.20;;;;;;4959758;28;20787;-73
2022/09/04 06:38:09;;;;;;;5.32;2.60;;;14.50;72.70;;;;;;4962807;28;20074;-73
2022/09/04 06:41:02;;;;;;;4.00;2.45;;;14.70;73.30;;;;;;4974974;28;20045;-73
2022/09/04 06:43:42;;;;;;;6.25;2.63;;;14.80;73.30;;;;;;5002853;28;20046;-75
2022/09/04 06:46:34;;;;;;;6.70;2.72;;;14.90;73.30;;;;;;4948377;28;20393;-76
2022/09/04 06:49:17;;;;;;;5.53;2.83;;;15.00;73.30;;;;;;4971185;28;20044;-74
2022/09/04 06:51:56;;;;;;;4.68;2.83;;;15.20;73.00;;;;;;4974035;28;20064;-73
2022/09/04 06:54:54;;;;;;;3.35;3.05;;;15.30;72.70;;;;;;4965658;28;20045;-73
2022/09/04 06:57:41;;;;;;;4.13;2.85;;;15.40;72.60;;;;;;4957469;28;20042;-74
2022/09/04 07:00:10;;;;;;;5.13;2.60;;;15.50;72.80;;;;;;4967973;28;20041;-73
2022/09/04 07:03:03;;;;;;;3.33;2.63;;;15.70;72.20;;;;;;4960110;28;20042;-74
2022/09/04 07:05:43;;;;;;;3.13;2.83;;;15.80;72.60;;;;;;4978505;28;20049;-75
2022/09/04 07:08:39;;;;;;;4.72;2.95;;;15.90;71.90;;;;;;4963882;28;20038;-73
2022/09/04 07:11:27;;;;;;;4.22;2.47;;;16.10;72.20;;;;;;4979915;28;20041;-74
2022/09/04 07:13:59;;;;;;;4.55;3.45;;;16.30;72.00;;;;;;4979527;28;20042;-74
2022/09/04 07:16:33;;;;;;;7.45;3.70;;;16.40;72.40;;;;;;4957723;28;20045;-74
2022/09/04 07:19:06;;;;;;;4.95;3.50;;;16.50;71.40;;;;;;4987665;28;20148;-75
2022/09/04 07:21:57;;;;;;;3.45;3.10;;;16.70;71.30;;;;;;4991072;28;20042;-75
2022/09/04 07:25:00;;;;;;;6.78;3.75;;;16.80;71.60;;;;;;4960267;28;20037;-76
2022/09/04 07:27:37;;;;;;;7.68;3.78;;;17.00;71.40;;;;;;5002939;28;20045;-75
2022/09/04 07:30:07;;;;;;;4.88;4.30;;;17.20;70.90;;;;;;4989471;28;20033;-75
2022/09/04 07:32:44;;;;;;;5.10;4.00;;;17.30;70.60;;;;;;4971428;28;20045;-75
2022/09/04 07:35:18;;;;;;;7.10;3.67;;;17.50;70.50;;;;;;4989116;28;20529;-73
2022/09/04 07:38:05;;;;;;;4.88;3.80;;;17.70;70.40;;;;;;4977809;28;20050;-74
2022/09/04 07:40:42;;;;;;;3.53;2.70;;;17.90;70.40;;;;;;5007186;28;20038;-75
2022/09/04 07:43:19;;;;;;;2.90;2.60;;;18.10;70.00;;;;;;4987244;28;20040;-74
2022/09/04 07:45:49;;;;;;;5.75;2.90;;;18.30;69.80;;;;;;4983505;28;20044;-74
2022/09/04 07:48:40;;;;;;;5.47;3.55;;;18.40;69.40;;;;;;4952686;28;20037;-75
2022/09/04 07:51:12;;;;;;;7.75;3.40;;;18.70;69.50;;;;;;4983222;28;20042;-74
2022/09/04 07:54:06;;;;;;;4.95;3.38;;;18.90;68.80;;;;;;4983373;28;20465;-74
2022/09/04 07:57:22;;;;;;;3.50;2.90;;;19.10;68.70;;;;;;4987832;28;20109;-75
2022/09/04 08:00:08;;;;;;;3.15;2.38;;;19.30;68.20;;;;;;4910843;29;20032;-74
2022/09/04 08:03:12;;;;;;;5.22;2.30;;;19.60;68.00;;;;;;4915069;29;20947;-75
2022/09/04 08:06:12;;;;;;;3.60;2.95;;;19.80;67.60;;;;;;4956376;28;20061;-76
2022/09/04 08:09:09;;;;;;;3.70;2.95;;;20.10;67.00;;;;;;4971432;28;20056;-77
2022/09/04 08:12:08;;;;;;;4.05;2.13;;;20.30;66.60;;;;;;4987919;28;20044;-75
2022/09/04 08:14:52;;;;;;;6.00;2.28;;;20.50;66.10;;;;;;4975523;28;20030;-76
2022/09/04 08:17:30;;;;;;;3.35;2.13;;;20.70;65.50;;;;;;4992180;28;20034;-76
2022/09/04 08:20:18;;;;;;;2.35;1.90;;;20.90;65.20;;;;;;5005794;28;20487;-77
2022/09/04 08:23:06;;;;;;;2.03;1.83;;;21.20;64.80;;;;;;4972917;28;20070;-76
2022/09/04 08:25:48;;;;;;;3.42;2.67;;;21.40;64.40;;;;;;4979576;28;20031;-76
2022/09/04 08:28:33;;;;;;;2.80;2.05;;;21.70;63.80;;;;;;4952380;28;20062;-77
2022/09/04 08:31:06;;;;;;;4.00;2.40;;;21.90;63.40;;;;;;4966350;28;20049;-76
2022/09/04 08:33:46;;;;;;;2.67;2.22;;;22.10;62.90;;;;;;4964579;28;20114;-76
2022/09/04 08:36:32;;;;;;;2.63;1.98;;;22.30;62.50;;;;;;4965337;28;20133;-76
2022/09/04 08:39:00;;;;;;;4.68;2.05;;;22.60;61.90;;;;;;4970754;28;20037;-77
2022/09/04 08:41:46;;;;;;;2.75;1.67;;;22.80;61.40;;;;;;4976586;28;20045;-77
2022/09/04 08:44:43;;;;;;;2.35;1.73;;;23.10;60.90;;;;;;4997259;28;20124;-77
2022/09/04 08:47:19;;;;;;;1.80;1.58;;;23.30;60.30;;;;;;4993068;28;20069;-77
2022/09/04 08:49:59;;;;;;;2.17;1.98;;;23.50;60.00;;;;;;4975675;28;20047;-75
2022/09/04 08:53:02;;;;;;;3.88;1.80;;;23.80;59.50;;;;;;4979356;28;20038;-75
2022/09/04 08:55:37;;;;;;;4.20;1.60;;;24.00;59.00;;;;;;4972895;28;20042;-75
2022/09/04 08:58:34;;;;;;;2.40;1.58;;;24.30;58.60;;;;;;4997815;28;20043;-75
2022/09/04 09:01:18;;;;;;;1.75;1.63;;;24.50;58.10;;;;;;4977964;28;20047;-77
2022/09/04 09:04:13;;;;;;;2.08;1.88;;;24.70;58.00;;;;;;4984103;28;20042;-75
2022/09/04 09:07:12;;;;;;;2.25;1.73;;;24.90;57.60;;;;;;4987055;28;20095;-77
2022/09/04 09:09:56;;;;;;;2.80;1.60;;;25.20;57.10;;;;;;4966959;28;20057;-77
2022/09/04 09:12:43;;;;;;;1.70;1.33;;;25.40;56.90;;;;;;4981793;28;20034;-76
2022/09/04 09:15:35;;;;;;;2.78;1.38;;;25.70;56.10;;;;;;4967655;28;20133;-77
2022/09/04 09:18:07;;;;;;;1.83;1.70;;;25.80;55.80;;;;;;4985022;28;20053;-77
2022/09/04 09:20:53;;;;;;;2.35;1.48;;;26.10;55.60;;;;;;4963510;28;20559;-76
2022/09/04 09:23:46;;;;;;;2.25;1.52;;;26.30;54.90;;;;;;4927989;28;20041;-77
2022/09/04 09:26:29;;;;;;;2.88;1.40;;;26.50;54.50;;;;;;4965109;28;20041;-77
2022/09/04 09:29:18;;;;;;;1.90;1.50;;;26.60;53.80;;;;;;4957557;28;20166;-78
2022/09/04 09:32:02;;;;;;;1.55;1.35;;;26.80;53.70;;;;;;4958372;28;20052;-76
2022/09/04 09:34:39;;;;;;;2.67;1.50;;;27.10;53.50;;;;;;4987083;28;20050;-77
2022/09/04 09:37:42;;;;;;;2.33;1.25;;;27.30;53.20;;;;;;4972388;28;20042;-77
2022/09/04 09:40:25;;;;;;;1.45;1.35;;;27.50;52.70;;;;;;4969894;28;20100;-79
2022/09/04 09:42:56;;;;;;;1.30;1.20;;;27.70;52.70;;;;;;4980014;28;20041;-79
2022/09/04 09:45:22;;;;;;;;;;;28.00;52.40;;;;;;4978605;28;20061;-78
2022/09/04 09:47:53;;;;;;;9.05;5.30;;;28.20;52.90;;;;;;4967917;28;19918;-80
2022/09/04 09:50:47;;;;;;;7.72;3.70;;;28.50;51.80;;;;;;4975055;28;20069;-78
2022/09/04 09:53:59;;;;;;;2.65;1.67;;;28.70;51.10;;;;;;4979750;28;20111;-78
2022/09/04 09:56:33;;;;;;;;;;;28.80;50.30;;;;;;4962687;28;20104;-77
2022/09/04 09:59:14;;;;;;;2.45;1.40;;;29.10;51.10;;;;;;4960218;28;19964;-73
2022/09/04 10:02:07;;;;;;;2.83;1.10;;;29.20;50.60;;;;;;4960175;28;20502;-73
2022/09/04 10:04:54;;;;;;;1.30;1.20;;;29.50;49.60;;;;;;4946919;28;20694;-72
2022/09/04 10:07:58;;;;;;;1.45;1.27;;;29.70;49.00;;;;;;4974778;28;20124;-77
2022/09/04 10:10:39;;;;;;;0.95;0.93;;;29.90;48.60;;;;;;4997450;28;20113;-77
2022/09/04 10:13:32;;;;;;;1.20;1.05;;;30.10;48.40;;;;;;4983662;28;20046;-77
2022/09/04 10:16:32;;;;;;;1.10;1.00;;;30.40;47.70;;;;;;4987089;28;20065;-77
2022/09/04 10:19:26;;;;;;;1.40;1.00;;;30.60;47.20;;;;;;4965310;28;20026;-77
2022/09/04 10:22:29;;;;;;;1.05;0.90;;;30.80;47.20;;;;;;4972895;28;20093;-76
2022/09/04 10:25:19;;;;;;;1.08;1.00;;;31.00;46.90;;;;;;4971562;28;20101;-75
2022/09/04 10:27:59;;;;;;;0.80;0.80;;;31.20;46.10;;;;;;4977154;28;20546;-75
2022/09/04 10:30:46;;;;;;;0.85;0.82;;;31.40;46.00;;;;;;4987892;28;20034;-75
2022/09/04 10:33:19;;;;;;;1.52;1.02;;;31.60;46.00;;;;;;4981358;28;20624;-74
2022/09/04 10:36:09;;;;;;;1.13;0.88;;;31.80;45.40;;;;;;4958603;28;20045;-73
2022/09/04 10:41:56;;;;;;;1.52;0.80;;;32.10;44.10;;;;;;4966465;28;20500;-76
2022/09/04 10:45:03;;;;;;;1.27;0.63;;;32.10;44.00;;;;;;4951273;28;20054;-74
2022/09/04 10:47:51;;;;;;;0.52;0.52;;;32.20;43.30;;;;;;4952696;28;20137;-75
2022/09/04 10:50:58;;;;;;;0.85;0.82;;;32.40;43.90;;;;;;4965650;28;20072;-75
2022/09/04 10:53:59;;;;;;;0.50;0.50;;;32.70;42.50;;;;;;4971211;28;20746;-74
2022/09/04 10:56:28;;;;;;;;;;;32.90;42.00;;;;;;4967498;28;20042;-75
2022/09/04 10:59:31;;;;;;;0.90;0.70;;;33.00;43.00;;;;;;4979019;28;19921;-74
2022/09/04 11:02:31;;;;;;;1.58;0.70;;;33.10;41.80;;;;;;4978156;28;20096;-74
2022/09/04 11:05:17;;;;;;;1.77;0.75;;;33.30;41.70;;;;;;4959888;28;20038;-74
2022/09/04 11:08:11;;;;;;;1.48;0.90;;;33.50;41.20;;;;;;4953770;28;20070;-75
2022/09/04 11:10:49;;;;;;;1.58;0.60;;;33.60;41.10;;;;;;4971452;28;20034;-75
2022/09/04 11:13:42;;;;;;;0.93;0.60;;;33.80;41.30;;;;;;4962986;28;20073;-74
2022/09/04 11:16:28;;;;;;;0.82;0.60;;;33.90;40.00;;;;;;4984259;28;20053;-77
2022/09/04 11:19:32;;;;;;;1.27;0.80;;;33.90;40.60;;;;;;4974440;28;20077;-77
2022/09/04 11:22:20;;;;;;;1.00;0.80;;;34.10;39.70;;;;;;5003511;28;20061;-77
2022/09/04 11:24:52;;;;;;;2.00;0.68;;;34.20;39.60;;;;;;4982886;28;20117;-77
2022/09/04 11:27:50;;;;;;;2.50;0.75;;;34.40;39.90;;;;;;4977832;28;20511;-78
2022/09/04 11:30:28;;;;;;;1.35;0.73;;;34.50;39.00;;;;;;4965182;28;20066;-77
2022/09/04 11:33:06;;;;;;;0.80;0.60;;;34.60;39.10;;;;;;4960702;28;20832;-77
2022/09/04 11:36:22;;;;;;;0.73;0.73;;;34.80;38.80;;;;;;4961070;28;20527;-78
2022/09/04 11:39:43;;;;;;;0.63;0.63;;;35.00;38.00;;;;;;4958495;28;20399;-78
2022/09/04 11:42:19;;;;;;;5.88;1.08;;;35.30;37.80;;;;;;4927276;28;20070;-77
2022/09/04 11:45:06;;;;;;;2.95;0.68;;;35.40;38.20;;;;;;4984525;28;20042;-77
2022/09/04 11:47:51;;;;;;;1.02;0.70;;;35.40;38.10;;;;;;4979535;28;20555;-78
2022/09/04 11:50:44;;;;;;;0.98;0.60;;;35.40;38.10;;;;;;4985754;28;20038;-77
2022/09/04 11:53:43;;;;;;;1.75;0.77;;;35.40;37.10;;;;;;4982257;28;20080;-77
2022/09/04 11:56:27;;;;;;;2.55;0.73;;;35.30;36.70;;;;;;5004624;28;20037;-78
2022/09/04 11:59:19;;;;;;;1.75;0.60;;;35.30;37.50;;;;;;4985691;28;20034;-77
2022/09/04 12:01:56;;;;;;;1.02;0.80;;;35.20;36.50;;;;;;4993229;28;20038;-78
2022/09/04 12:04:48;;;;;;;0.55;0.50;;;35.20;36.90;;;;;;4951548;28;20034;-77
2022/09/04 12:07:41;;;;;;;0.73;0.45;;;35.10;36.70;;;;;;4991047;28;20058;-77
2022/09/04 12:10:07;;;;;;;1.75;0.85;;;35.00;36.20;;;;;;4999893;28;20042;-77
2022/09/04 12:12:49;;;;;;;1.08;0.70;;;34.90;36.80;;;;;;4997209;28;20038;-76
2022/09/04 12:15:21;;;;;;;0.68;0.43;;;34.80;36.20;;;;;;4976075;28;20550;-77
2022/09/04 12:17:47;;;;;;;1.90;0.60;;;34.70;36.50;;;;;;4963551;28;20042;-76
2022/09/04 12:20:36;;;;;;;0.65;0.57;;;34.60;36.50;;;;;;4994986;28;20046;-77
2022/09/04 12:23:24;;;;;;;0.98;0.88;;;34.50;36.10;;;;;;4976632;28;20043;-77
2022/09/04 12:26:27;;;;;;;0.95;0.75;;;34.40;36.40;;;;;;4976178;28;20035;-77
2022/09/04 12:29:19;;;;;;;1.65;0.68;;;34.30;36.10;;;;;;4979800;28;20054;-78
2022/09/04 12:32:24;;;;;;;0.90;0.75;;;34.10;36.20;;;;;;4984048;28;20065;-77
2022/09/04 12:35:15;;;;;;;3.22;0.70;;;34.00;36.30;;;;;;4988154;28;20042;-77
2022/09/04 12:38:04;;;;;;;1.58;0.60;;;33.90;36.50;;;;;;5010124;28;20483;-77
2022/09/04 12:40:52;;;;;;;3.15;1.08;;;33.80;36.80;;;;;;4995701;28;20065;-77
2022/09/04 12:43:41;;;;;;;1.80;0.70;;;33.70;36.40;;;;;;4991279;28;20033;-75
2022/09/04 12:46:28;;;;;;;1.30;0.77;;;33.60;36.70;;;;;;4994232;28;20045;-78
2022/09/04 12:49:02;;;;;;;1.48;0.82;;;33.50;36.80;;;;;;4987632;28;20040;-77
2022/09/04 12:51:42;;;;;;;0.95;0.63;;;33.40;36.90;;;;;;4959892;28;20119;-78
2022/09/04 12:54:38;;;;;;;1.25;0.77;;;33.30;36.90;;;;;;4976055;28;20056;-77
2022/09/04 12:57:07;;;;;;;2.58;1.00;;;33.10;36.80;;;;;;4976307;28;20038;-77
2022/09/04 12:59:57;;;;;;;1.15;0.70;;;33.00;37.20;;;;;;4996456;28;20031;-76
2022/09/04 13:02:37;;;;;;;0.70;0.55;;;32.80;37.10;;;;;;4993683;28;20073;-76
2022/09/04 13:05:17;;;;;;;0.70;0.70;;;32.70;37.20;;;;;;4975984;28;20054;-75
2022/09/04 13:08:18;;;;;;;1.45;0.77;;;32.60;37.30;;;;;;4993740;28;20080;-76
2022/09/04 13:11:06;;;;;;;1.27;0.82;;;32.50;37.60;;;;;;4968816;28;20043;-76
2022/09/04 13:13:45;;;;;;;1.02;0.60;;;32.40;37.60;;;;;;4977130;28;20097;-75
2022/09/04 13:16:26;;;;;;;0.70;0.70;;;32.20;37.60;;;;;;4983332;28;20031;-76
2022/09/04 13:19:14;;;;;;;1.40;0.70;;;32.10;37.70;;;;;;4972770;28;20034;-76
2022/09/04 13:22:04;;;;;;;1.15;0.95;;;32.00;37.50;;;;;;4994520;28;20481;-75
2022/09/04 13:25:08;;;;;;;0.95;0.73;;;31.90;37.70;;;;;;5013348;28;20034;-76
2022/09/04 13:27:42;;;;;;;1.05;0.70;;;31.80;37.80;;;;;;5008857;28;20050;-75
2022/09/04 13:30:10;;;;;;;1.90;1.00;;;31.70;38.00;;;;;;5012827;28;20042;-76
2022/09/04 13:32:51;;;;;;;2.47;0.80;;;31.60;38.10;;;;;;4996376;28;20042;-76
2022/09/04 13:35:40;;;;;;;2.03;0.90;;;31.50;38.20;;;;;;4997212;28;20453;-76
2022/09/04 13:38:39;;;;;;;0.77;0.73;;;31.50;38.30;;;;;;4997981;28;20041;-75
2022/09/04 13:41:11;;;;;;;2.47;0.68;;;31.50;38.40;;;;;;4974191;28;20034;-76
2022/09/04 13:43:55;;;;;;;2.33;1.75;;;31.50;38.60;;;;;;4992525;28;20056;-76
2022/09/04 13:46:23;;;;;;;1.15;1.00;;;31.50;38.70;;;;;;4968270;28;20039;-75
2022/09/04 13:48:51;;;;;;;1.05;0.95;;;31.50;38.70;;;;;;4977864;28;20033;-76
2022/09/04 13:51:22;;;;;;;1.80;1.02;;;31.60;38.70;;;;;;4980254;28;20093;-76
2022/09/04 13:54:10;;;;;;;2.97;0.80;;;31.60;38.50;;;;;;4993291;28;20346;-76
2022/09/04 13:56:49;;;;;;;1.95;0.90;;;31.70;38.60;;;;;;4962237;28;20044;-75
2022/09/04 13:59:16;;;;;;;1.05;0.80;;;31.70;38.60;;;;;;4959763;28;20045;-75
2022/09/04 14:01:44;;;;;;;11.35;1.08;;;31.70;38.60;;;;;;4993552;28;20060;-76
2022/09/04 14:04:13;;;;;;;0.98;0.80;;;31.70;38.50;;;;;;4979759;28;20091;-77
2022/09/04 14:06:39;;;;;;;0.85;0.68;;;31.80;38.50;;;;;;4980434;28;20046;-76
2022/09/04 14:09:07;;;;;;;0.60;0.60;;;31.80;38.40;;;;;;4979837;28;20490;-76
2022/09/04 14:11:39;;;;;;;1.27;0.75;;;31.80;38.30;;;;;;4992937;28;20042;-76
2022/09/04 14:14:18;;;;;;;0.63;0.50;;;31.90;38.30;;;;;;5015248;28;20049;-76
2022/09/04 14:16:44;;;;;;;1.50;0.90;;;31.90;37.90;;;;;;4998876;28;20113;-77